Time;durP1;ratioP1;P1;durP2;ratioP2;P2;SDS_P1;SDS_P2;PMS_P1;PMS_P2;Temp;Humidity;BMP_temperature;BMP_pressure;BME280_temperature;BME280_humidity;BME280_pressure;Samples;Min_cycle;Max_cycle;Signal;HPM_P1;HPM_P2
2022/03/02 00:00:53;;;;;;;7.53;5.22;;;;;;;;;;4995099;28;20049;-58
2022/03/02 00:03:18;;;;;;;7.87;6.17;;;;;;;;;;4995867;28;20010;-58
2022/03/02 00:05:43;;;;;;;8.13;5.57;;;;;;;;;;5001691;28;20269;-58
2022/03/02 00:08:08;;;;;;;7.37;5.40;;;;;;;;;;5002818;28;20049;-58
2022/03/02 00:10:34;;;;;;;8.00;5.70;;;;;;;;;;5009228;28;20771;-58
2022/03/02 00:12:59;;;;;;;7.85;5.50;;;;;;;;;;5022825;28;20526;-58
2022/03/02 00:15:25;;;;;;;7.27;5.13;;;;;;;;;;5022652;28;20496;-59
2022/03/02 00:17:50;;;;;;;6.97;5.22;;;;;;;;;;5023425;28;21332;-58
2022/03/02 00:20:15;;;;;;;8.40;5.85;;;;;;;;;;5016401;28;20026;-59
2022/03/02 00:22:40;;;;;;;7.80;5.17;;;;;;;;;;4989841;28;20022;-58
2022/03/02 00:25:06;;;;;;;8.33;5.37;;;;;;;;;;5002769;28;20028;-58
2022/03/02 00:27:31;;;;;;;7.32;5.35;;;;;;;;;;5002934;28;20297;-58
2022/03/02 00:29:56;;;;;;;7.25;4.90;;;;;;;;;;5003587;28;20583;-57
2022/03/02 00:32:22;;;;;;;7.50;5.60;;;;;;;;;;5018448;28;20146;-58
2022/03/02 00:34:47;;;;;;;8.05;5.13;;;;;;;;;;5000744;28;20382;-59
2022/03/02 00:37:14;;;;;;;7.60;5.40;;;;;;;;;;5002682;28;20029;-60
2022/03/02 00:39:39;;;;;;;7.68;5.35;;;;;;;;;;5002274;28;20351;-58
2022/03/02 00:42:06;;;;;;;7.23;5.13;;;;;;;;;;4986349;28;20744;-58
2022/03/02 00:44:31;;;;;;;7.88;5.72;;;;;;;;;;5002774;28;20265;-59
2022/03/02 00:46:57;;;;;;;7.93;5.82;;;;;;;;;;5000676;28;20885;-59
2022/03/02 00:49:26;;;;;;;7.68;5.18;;;;;;;;;;5002528;28;20639;-59
2022/03/02 00:51:51;;;;;;;7.47;5.20;;;;;;;;;;5018536;28;20044;-58
2022/03/02 00:54:17;;;;;;;7.85;5.60;;;;;;;;;;5002263;28;20026;-59
2022/03/02 00:56:42;;;;;;;8.70;5.53;;;;;;;;;;5002264;28;20026;-58
2022/03/02 00:59:07;;;;;;;8.53;5.40;;;;;;;;;;5002812;28;20300;-58
2022/03/02 01:01:32;;;;;;;7.77;5.77;;;;;;;;;;4989555;28;20041;-58
2022/03/02 01:03:58;;;;;;;7.43;5.43;;;;;;;;;;5000638;28;20079;-57
2022/03/02 01:06:23;;;;;;;7.77;5.70;;;;;;;;;;5021492;28;20033;-58
2022/03/02 01:08:50;;;;;;;7.33;5.30;;;;;;;;;;5021700;28;20052;-59
2022/03/02 01:11:15;;;;;;;6.65;4.95;;;;;;;;;;5021918;28;20275;-58
2022/03/02 01:13:40;;;;;;;7.37;5.10;;;;;;;;;;5007215;28;20026;-57
2022/03/02 01:16:05;;;;;;;7.40;5.05;;;;;;;;;;5001681;28;20363;-57
2022/03/02 01:18:31;;;;;;;7.73;5.60;;;;;;;;;;5002135;28;20063;-58
2022/03/02 01:20:56;;;;;;;7.87;5.30;;;;;;;;;;4993093;28;20873;-58
2022/03/02 01:23:21;;;;;;;6.85;5.05;;;;;;;;;;4988634;28;20368;-57
2022/03/02 01:25:46;;;;;;;7.70;5.35;;;;;;;;;;4982033;28;20129;-61
2022/03/02 01:28:12;;;;;;;8.37;5.57;;;;;;;;;;5000660;28;20109;-58
2022/03/02 01:30:37;;;;;;;7.00;5.00;;;;;;;;;;5007580;28;20272;-58
2022/03/02 01:33:02;;;;;;;8.05;5.38;;;;;;;;;;5012165;28;20289;-57
2022/03/02 01:35:27;;;;;;;7.70;5.10;;;;;;;;;;5001846;28;20030;-58
2022/03/02 01:37:53;;;;;;;9.07;5.43;;;;;;;;;;5000886;28;20568;-58
2022/03/02 01:40:18;;;;;;;7.40;5.10;;;;;;;;;;5000407;28;20037;-58
2022/03/02 01:42:43;;;;;;;7.80;5.17;;;;;;;;;;5001451;28;20291;-58
2022/03/02 01:45:09;;;;;;;6.55;4.60;;;;;;;;;;4991192;28;20466;-58
2022/03/02 01:47:34;;;;;;;7.60;5.10;;;;;;;;;;4994744;28;20052;-57
2022/03/02 01:50:00;;;;;;;7.77;5.00;;;;;;;;;;5018404;28;20104;-58
2022/03/02 01:52:25;;;;;;;7.55;5.55;;;;;;;;;;5016689;28;20335;-58
2022/03/02 01:54:51;;;;;;;7.97;5.72;;;;;;;;;;5001024;28;20397;-61
2022/03/02 01:57:16;;;;;;;7.55;5.25;;;;;;;;;;5000811;28;20030;-58
2022/03/02 01:59:41;;;;;;;7.80;5.20;;;;;;;;;;5001427;28;20053;-58
2022/03/02 02:02:06;;;;;;;9.53;5.83;;;;;;;;;;5001085;28;20033;-58
2022/03/02 02:04:32;;;;;;;6.97;5.00;;;;;;;;;;4995805;28;20025;-58
2022/03/02 02:06:57;;;;;;;8.20;5.03;;;;;;;;;;4989810;28;20668;-58
2022/03/02 02:09:22;;;;;;;8.47;4.93;;;;;;;;;;5000808;28;20462;-58
2022/03/02 02:11:47;;;;;;;6.60;4.67;;;;;;;;;;5016361;28;20322;-58
2022/03/02 02:14:12;;;;;;;6.53;4.85;;;;;;;;;;5001571;28;20044;-61
2022/03/02 02:16:38;;;;;;;8.00;5.50;;;;;;;;;;5000319;28;20110;-58
2022/03/02 02:19:03;;;;;;;7.07;5.33;;;;;;;;;;5001103;28;20699;-58
2022/03/02 02:21:29;;;;;;;6.80;4.93;;;;;;;;;;5000520;28;20261;-58
2022/03/02 02:23:54;;;;;;;7.10;4.95;;;;;;;;;;5001067;28;20280;-57
2022/03/02 02:26:21;;;;;;;6.85;4.90;;;;;;;;;;4984703;28;20017;-58
2022/03/02 02:28:46;;;;;;;6.75;4.90;;;;;;;;;;5000630;28;20108;-60
2022/03/02 02:31:12;;;;;;;6.63;4.83;;;;;;;;;;5010856;28;20151;-59
2022/03/02 02:33:37;;;;;;;7.15;4.60;;;;;;;;;;5006756;28;20299;-59
2022/03/02 02:36:03;;;;;;;6.60;4.83;;;;;;;;;;4998617;28;20639;-59
2022/03/02 02:38:28;;;;;;;6.40;4.63;;;;;;;;;;4998927;28;20449;-59
2022/03/02 02:40:53;;;;;;;7.03;5.10;;;;;;;;;;5000672;28;20472;-59
2022/03/02 02:43:19;;;;;;;6.78;4.68;;;;;;;;;;5000908;28;20416;-59
2022/03/02 02:45:44;;;;;;;6.60;4.68;;;;;;;;;;4985643;28;20061;-59
2022/03/02 02:48:10;;;;;;;6.45;4.70;;;;;;;;;;4999181;28;20493;-59
2022/03/02 02:50:35;;;;;;;6.23;4.83;;;;;;;;;;5000456;28;20111;-59
2022/03/02 02:53:01;;;;;;;7.20;5.10;;;;;;;;;;5000133;28;20308;-58
2022/03/02 02:55:28;;;;;;;7.75;5.20;;;;;;;;;;5000158;28;20798;-59
2022/03/02 02:57:53;;;;;;;7.15;5.20;;;;;;;;;;5000137;28;20456;-59
2022/03/02 03:00:19;;;;;;;6.30;4.45;;;;;;;;;;5000041;28;20021;-59
2022/03/02 03:02:45;;;;;;;6.63;5.00;;;;;;;;;;5000527;28;20401;-59
2022/03/02 03:05:10;;;;;;;7.00;4.95;;;;;;;;;;4989742;28;20519;-59
2022/03/02 03:07:36;;;;;;;6.20;4.70;;;;;;;;;;4993431;28;20058;-58
2022/03/02 03:10:01;;;;;;;6.47;4.97;;;;;;;;;;4988040;28;20053;-57
2022/03/02 03:12:26;;;;;;;6.10;4.65;;;;;;;;;;5004536;28;20901;-58
2022/03/02 03:14:51;;;;;;;6.17;4.47;;;;;;;;;;5000059;28;20018;-58
2022/03/02 03:17:17;;;;;;;6.43;4.60;;;;;;;;;;4998634;28;20268;-59
2022/03/02 03:19:42;;;;;;;6.80;4.53;;;;;;;;;;5000128;28;20786;-58
2022/03/02 03:22:07;;;;;;;6.63;5.00;;;;;;;;;;4999805;28;20014;-58
2022/03/02 03:24:33;;;;;;;6.18;4.60;;;;;;;;;;4999807;28;20364;-59
2022/03/02 03:26:58;;;;;;;6.68;4.65;;;;;;;;;;4999931;28;20030;-59
2022/03/02 03:29:24;;;;;;;7.65;5.43;;;;;;;;;;4999628;28;20018;-58
2022/03/02 03:31:49;;;;;;;6.37;4.57;;;;;;;;;;4982756;28;20554;-59
2022/03/02 03:34:14;;;;;;;6.87;4.43;;;;;;;;;;4999138;28;20022;-59
2022/03/02 03:36:41;;;;;;;5.83;4.67;;;;;;;;;;4999574;28;20865;-59
2022/03/02 03:39:06;;;;;;;6.68;4.47;;;;;;;;;;4999966;28;20296;-59
2022/03/02 03:41:32;;;;;;;5.45;4.30;;;;;;;;;;5000204;28;20057;-59
2022/03/02 03:43:57;;;;;;;5.97;4.53;;;;;;;;;;4999597;28;20018;-58
2022/03/02 03:46:22;;;;;;;5.83;4.53;;;;;;;;;;4999593;28;20269;-57
2022/03/02 03:48:47;;;;;;;6.43;4.67;;;;;;;;;;4999821;28;20269;-59
2022/03/02 03:51:12;;;;;;;6.47;4.55;;;;;;;;;;4989237;28;20031;-58
2022/03/02 03:53:38;;;;;;;6.00;4.23;;;;;;;;;;4993740;28;20040;-58
2022/03/02 03:56:03;;;;;;;4.93;3.93;;;;;;;;;;4999606;28;20025;-58
2022/03/02 03:58:28;;;;;;;6.97;4.53;;;;;;;;;;4999851;28;20018;-59
2022/03/02 04:00:53;;;;;;;5.97;4.37;;;;;;;;;;4999659;28;20025;-58
2022/03/02 04:03:19;;;;;;;6.23;3.90;;;;;;;;;;4999818;28;20265;-59
2022/03/02 04:05:44;;;;;;;6.17;4.73;;;;;;;;;;4999464;28;20269;-59
2022/03/02 04:08:09;;;;;;;6.45;4.38;;;;;;;;;;4998672;28;20038;-58
2022/03/02 04:10:34;;;;;;;5.97;4.40;;;;;;;;;;5007095;28;20503;-59
2022/03/02 04:13:00;;;;;;;5.65;3.70;;;;;;;;;;5014466;28;20508;-59
2022/03/02 04:15:25;;;;;;;6.40;4.40;;;;;;;;;;5002756;28;20450;-59
2022/03/02 04:17:50;;;;;;;5.67;4.33;;;;;;;;;;5003042;28;20030;-59
2022/03/02 04:20:16;;;;;;;6.17;4.50;;;;;;;;;;5002462;28;20257;-57
2022/03/02 04:22:41;;;;;;;5.47;4.07;;;;;;;;;;5002828;28;20279;-58
2022/03/02 04:25:06;;;;;;;4.73;3.77;;;;;;;;;;5003148;28;20097;-58
2022/03/02 04:27:32;;;;;;;5.88;3.75;;;;;;;;;;5002910;28;20335;-58
2022/03/02 04:29:57;;;;;;;5.73;3.73;;;;;;;;;;5002746;28;20120;-59
2022/03/02 04:32:22;;;;;;;4.80;3.80;;;;;;;;;;5019118;28;20284;-58
2022/03/02 04:34:47;;;;;;;5.70;3.83;;;;;;;;;;5002367;28;20105;-58
2022/03/02 04:37:12;;;;;;;5.13;3.30;;;;;;;;;;5002731;28;20352;-58
2022/03/02 04:39:38;;;;;;;5.27;3.67;;;;;;;;;;5002349;28;20296;-59
2022/03/02 04:42:03;;;;;;;4.80;3.65;;;;;;;;;;5002401;28;20296;-58
2022/03/02 04:44:28;;;;;;;4.93;3.70;;;;;;;;;;4997511;28;20527;-59
2022/03/02 04:46:54;;;;;;;5.05;3.78;;;;;;;;;;5002271;28;20068;-59
2022/03/02 04:49:20;;;;;;;5.27;3.73;;;;;;;;;;5002475;28;20046;-59
2022/03/02 04:51:46;;;;;;;5.38;3.70;;;;;;;;;;4990320;28;20292;-57
2022/03/02 04:55:05;;;;;;;4.97;3.50;;;;;;;;;;4999374;28;20030;-57
2022/03/02 04:56:57;;;;;;;4.93;3.38;;;;;;;;;;5000650;28;20095;-58
2022/03/02 04:59:22;;;;;;;5.30;3.70;;;;;;;;;;5001814;28;20547;-59
2022/03/02 05:01:48;;;;;;;5.37;3.70;;;;;;;;;;5000968;28;20094;-59
2022/03/02 05:04:13;;;;;;;5.18;3.65;;;;;;;;;;5001061;28;20367;-59
2022/03/02 05:06:38;;;;;;;5.97;3.50;;;;;;;;;;5000274;28;20049;-57
2022/03/02 05:09:03;;;;;;;4.60;3.30;;;;;;;;;;5001113;28;20053;-57
2022/03/02 05:11:29;;;;;;;4.63;3.67;;;;;;;;;;5000162;28;20129;-58
2022/03/02 05:13:54;;;;;;;4.68;3.17;;;;;;;;;;5001393;28;20030;-58
2022/03/02 05:16:21;;;;;;;4.43;3.40;;;;;;;;;;4999277;28;20170;-58
2022/03/02 05:18:46;;;;;;;4.47;3.33;;;;;;;;;;5000471;28;20277;-58
2022/03/02 05:21:11;;;;;;;4.47;3.00;;;;;;;;;;5000156;28;20642;-58
2022/03/02 05:23:37;;;;;;;4.65;3.50;;;;;;;;;;4999611;28;20269;-58
2022/03/02 05:26:02;;;;;;;5.10;3.50;;;;;;;;;;5001036;28;20120;-57
2022/03/02 05:28:27;;;;;;;4.65;3.10;;;;;;;;;;5001063;28;20261;-58
2022/03/02 05:30:52;;;;;;;5.70;3.53;;;;;;;;;;5002412;28;20389;-58
2022/03/02 05:33:18;;;;;;;4.37;3.00;;;;;;;;;;4994762;28;20324;-58
2022/03/02 05:35:43;;;;;;;3.67;2.83;;;;;;;;;;5000797;28;20077;-58
2022/03/02 05:38:08;;;;;;;4.33;3.20;;;;;;;;;;4986350;28;20076;-60
2022/03/02 05:40:33;;;;;;;4.17;2.90;;;;;;;;;;5002125;28;20042;-59
2022/03/02 05:42:59;;;;;;;4.23;3.07;;;;;;;;;;4990502;28;20065;-58
2022/03/02 05:45:24;;;;;;;4.40;3.15;;;;;;;;;;5001407;28;20045;-58
2022/03/02 05:47:49;;;;;;;4.27;2.87;;;;;;;;;;5001321;28;20026;-58
2022/03/02 05:50:14;;;;;;;5.00;3.07;;;;;;;;;;5003051;28;20026;-60
2022/03/02 05:52:39;;;;;;;4.67;2.93;;;;;;;;;;5013863;28;20034;-59
2022/03/02 05:55:05;;;;;;;4.80;3.30;;;;;;;;;;5001283;28;20260;-59
2022/03/02 05:57:30;;;;;;;4.72;2.70;;;;;;;;;;4995819;28;20279;-60
2022/03/02 05:59:56;;;;;;;4.10;2.83;;;;;;;;;;4931436;28;20177;-60
2022/03/02 06:02:21;;;;;;;3.97;3.05;;;;;;;;;;5017452;28;20583;-61
2022/03/02 06:04:47;;;;;;;5.03;3.00;;;;;;;;;;4999225;28;20761;-58
2022/03/02 06:07:13;;;;;;;4.13;3.03;;;;;;;;;;4999285;28;20041;-59
2022/03/02 06:09:38;;;;;;;4.35;2.70;;;;;;;;;;5000240;28;20022;-60
2022/03/02 06:12:03;;;;;;;3.85;2.80;;;;;;;;;;4997499;28;20523;-58
2022/03/02 06:14:29;;;;;;;4.70;2.85;;;;;;;;;;5001396;28;20038;-56
2022/03/02 06:16:54;;;;;;;3.80;2.53;;;;;;;;;;4993283;28;20030;-58
2022/03/02 06:19:19;;;;;;;4.07;2.95;;;;;;;;;;4991679;28;20037;-59
2022/03/02 06:21:46;;;;;;;3.60;2.50;;;;;;;;;;5032683;28;20041;-57
2022/03/02 06:24:14;;;;;;;4.20;2.70;;;;;;;;;;5000427;28;20026;-58
2022/03/02 06:26:39;;;;;;;3.75;2.53;;;;;;;;;;5000550;28;20037;-57
2022/03/02 06:29:04;;;;;;;4.50;2.55;;;;;;;;;;5000872;28;20030;-57
2022/03/02 06:31:31;;;;;;;3.80;2.60;;;;;;;;;;4999390;28;20053;-57
2022/03/02 06:33:56;;;;;;;3.90;2.72;;;;;;;;;;4999210;28;20041;-57
2022/03/02 06:36:22;;;;;;;3.53;2.77;;;;;;;;;;4996015;28;20022;-56
2022/03/02 06:38:47;;;;;;;3.40;2.30;;;;;;;;;;4999970;28;20287;-58
2022/03/02 06:41:31;;;;;;;4.23;2.30;;;;;;;;;;4989216;28;20436;-58
2022/03/02 06:44:00;;;;;;;3.17;2.38;;;;;;;;;;4996666;28;20127;-59
2022/03/02 06:46:37;;;;;;;3.33;2.63;;;;;;;;;;4999605;28;20517;-58
2022/03/02 06:49:04;;;;;;;4.65;2.80;;;;;;;;;;5000326;28;20143;-58
2022/03/02 06:51:29;;;;;;;3.13;2.38;;;;;;;;;;5000476;28;20109;-57
2022/03/02 06:53:55;;;;;;;3.08;2.45;;;;;;;;;;5000402;28;20466;-57
2022/03/02 06:56:20;;;;;;;3.03;2.40;;;;;;;;;;5031681;28;20021;-57
2022/03/02 06:58:49;;;;;;;2.78;2.20;;;;;;;;;;5000330;28;20552;-57
2022/03/02 07:01:14;;;;;;;3.17;2.30;;;;;;;;;;4998832;28;20060;-56
2022/03/02 07:03:45;;;;;;;4.00;2.50;;;;;;;;;;4986894;28;20316;-58
2022/03/02 07:06:11;;;;;;;2.83;2.15;;;;;;;;;;4997062;28;20504;-58
2022/03/02 07:08:36;;;;;;;3.13;2.40;;;;;;;;;;5026706;28;20064;-58
2022/03/02 07:11:01;;;;;;;3.17;2.20;;;;;;;;;;5000101;28;20098;-58
2022/03/02 07:13:29;;;;;;;2.87;1.93;;;;;;;;;;4997626;28;20383;-58
2022/03/02 07:15:55;;;;;;;3.78;2.50;;;;;;;;;;5031000;28;20045;-58
2022/03/02 07:18:20;;;;;;;3.07;2.23;;;;;;;;;;4992825;28;20493;-57
2022/03/02 07:20:46;;;;;;;3.05;2.30;;;;;;;;;;4991939;28;20028;-57
2022/03/02 07:23:12;;;;;;;3.78;2.60;;;;;;;;;;5000751;28;20481;-57
2022/03/02 07:25:38;;;;;;;3.13;2.15;;;;;;;;;;5021755;28;20019;-57
2022/03/02 07:28:03;;;;;;;2.92;2.20;;;;;;;;;;4995195;28;20080;-57
2022/03/02 07:30:29;;;;;;;3.60;2.40;;;;;;;;;;4998638;28;20495;-57
2022/03/02 07:32:54;;;;;;;3.22;2.53;;;;;;;;;;4994080;28;20084;-58
2022/03/02 07:35:20;;;;;;;4.20;2.55;;;;;;;;;;4984514;28;20532;-59
2022/03/02 07:37:45;;;;;;;4.07;2.53;;;;;;;;;;4998010;28;20034;-57
2022/03/02 07:40:11;;;;;;;3.40;2.38;;;;;;;;;;4993768;28;20076;-57
2022/03/02 07:42:37;;;;;;;2.92;2.45;;;;;;;;;;4996836;28;20831;-56
2022/03/02 07:45:02;;;;;;;4.80;2.40;;;;;;;;;;4997342;28;20036;-57
2022/03/02 07:47:27;;;;;;;4.00;2.20;;;;;;;;;;4999712;28;20025;-57
2022/03/02 07:49:52;;;;;;;3.30;2.20;;;;;;;;;;5000560;28;20017;-57
2022/03/02 07:52:18;;;;;;;3.87;2.37;;;;;;;;;;5001349;28;20300;-57
2022/03/02 07:54:43;;;;;;;3.30;2.45;;;;;;;;;;5032930;28;20033;-57
2022/03/02 07:57:11;;;;;;;3.25;2.33;;;;;;;;;;5033240;28;20767;-57
2022/03/02 07:59:37;;;;;;;3.30;2.40;;;;;;;;;;5001888;28;20025;-57
2022/03/02 08:02:03;;;;;;;4.15;2.40;;;;;;;;;;5001983;28;20030;-57
2022/03/02 08:04:29;;;;;;;4.82;2.20;;;;;;;;;;4998667;28;20021;-57
2022/03/02 08:06:54;;;;;;;3.80;2.42;;;;;;;;;;5033385;28;20464;-57
2022/03/02 08:09:19;;;;;;;4.95;2.60;;;;;;;;;;5001328;28;20026;-56
2022/03/02 08:11:45;;;;;;;3.40;2.40;;;;;;;;;;5001445;28;20056;-57
2022/03/02 08:14:10;;;;;;;3.20;2.20;;;;;;;;;;5033290;28;20485;-57
2022/03/02 08:16:35;;;;;;;3.80;2.50;;;;;;;;;;4996235;28;20547;-58
2022/03/02 08:19:04;;;;;;;3.92;2.58;;;;;;;;;;5002172;28;20389;-57
2022/03/02 08:21:30;;;;;;;3.90;2.47;;;;;;;;;;5001526;28;20022;-58
2022/03/02 08:23:56;;;;;;;3.28;2.40;;;;;;;;;;5032972;28;20018;-57
2022/03/02 08:26:21;;;;;;;3.47;2.38;;;;;;;;;;4994699;28;20595;-58
2022/03/02 08:28:46;;;;;;;3.47;2.90;;;;;;;;;;5032411;28;20025;-57
2022/03/02 08:31:12;;;;;;;3.78;2.70;;;;;;;;;;4994721;28;20036;-57
2022/03/02 08:33:37;;;;;;;3.92;2.40;;;;;;;;;;5018667;28;20084;-58
2022/03/02 08:36:03;;;;;;;2.47;2.15;;;;;;;;;;4994056;28;20275;-57
2022/03/02 08:38:28;;;;;;;3.78;2.38;;;;;;;;;;5002617;28;20097;-57
2022/03/02 08:40:53;;;;;;;3.47;2.70;;;;;;;;;;4990990;28;20121;-57
2022/03/02 08:43:18;;;;;;;3.10;2.40;;;;;;;;;;4995817;28;20524;-58
2022/03/02 08:45:47;;;;;;;4.80;2.33;;;;;;;;;;5002682;28;20297;-57
2022/03/02 08:48:14;;;;;;;3.90;2.47;;;;;;;;;;5033371;28;20026;-57
2022/03/02 08:50:39;;;;;;;3.08;2.38;;;;;;;;;;4983672;28;20452;-57
2022/03/02 08:53:04;;;;;;;3.55;2.35;;;;;;;;;;5021911;28;20037;-57
2022/03/02 08:55:30;;;;;;;4.93;2.85;;;;;;;;;;5000224;28;20033;-57
2022/03/02 08:57:55;;;;;;;3.15;2.40;;;;;;;;;;5014362;28;20023;-57
2022/03/02 09:00:20;;;;;;;3.37;2.50;;;;;;;;;;4983225;28;20046;-57
2022/03/02 09:02:46;;;;;;;3.83;2.50;;;;;;;;;;4982529;28;20269;-57
2022/03/02 09:05:11;;;;;;;3.40;2.65;;;;;;;;;;4985081;28;20125;-57
2022/03/02 09:07:36;;;;;;;3.60;2.50;;;;;;;;;;4981801;28;20723;-56
2022/03/02 09:10:02;;;;;;;4.43;2.67;;;;;;;;;;5002808;28;20277;-57
2022/03/02 09:12:27;;;;;;;3.67;2.80;;;;;;;;;;4982701;28;20297;-57
2022/03/02 09:14:53;;;;;;;3.43;2.73;;;;;;;;;;4981779;28;20469;-57
2022/03/02 09:17:18;;;;;;;4.15;2.70;;;;;;;;;;4982005;28;20495;-57
2022/03/02 09:19:44;;;;;;;3.83;2.58;;;;;;;;;;4981974;28;20022;-57
2022/03/02 09:22:09;;;;;;;4.43;2.55;;;;;;;;;;4982710;28;20068;-57
2022/03/02 09:24:35;;;;;;;3.47;2.40;;;;;;;;;;4985087;28;20528;-58
2022/03/02 09:27:01;;;;;;;3.90;2.63;;;;;;;;;;4985204;28;20023;-57
2022/03/02 09:29:27;;;;;;;3.50;2.70;;;;;;;;;;5012941;28;20787;-57
2022/03/02 09:31:52;;;;;;;3.40;2.50;;;;;;;;;;5015192;28;20042;-58
2022/03/02 09:34:18;;;;;;;3.97;2.67;;;;;;;;;;5016880;28;20034;-58
2022/03/02 09:36:44;;;;;;;4.07;2.80;;;;;;;;;;5016054;28;20354;-58
2022/03/02 09:39:09;;;;;;;6.00;2.80;;;;;;;;;;4984426;28;20022;-58
2022/03/02 09:41:37;;;;;;;3.85;3.13;;;;;;;;;;4985820;28;20516;-59
2022/03/02 09:44:04;;;;;;;3.85;2.80;;;;;;;;;;4984560;28;20054;-58
2022/03/02 09:46:34;;;;;;;4.72;3.25;;;;;;;;;;4992142;28;20022;-58
2022/03/02 09:49:04;;;;;;;4.03;2.85;;;;;;;;;;5015882;28;20105;-58
2022/03/02 09:51:29;;;;;;;2.90;2.60;;;;;;;;;;4983624;28;20258;-58
2022/03/02 09:53:54;;;;;;;3.80;2.80;;;;;;;;;;4982730;28;20516;-57
2022/03/02 09:56:20;;;;;;;4.20;2.88;;;;;;;;;;4984930;28;20498;-57
2022/03/02 09:58:45;;;;;;;4.82;3.15;;;;;;;;;;4983894;28;20026;-57
2022/03/02 10:01:15;;;;;;;3.97;3.00;;;;;;;;;;5014460;28;20559;-58
2022/03/02 10:03:44;;;;;;;4.18;2.97;;;;;;;;;;4983789;28;20442;-58
2022/03/02 10:06:09;;;;;;;5.38;3.20;;;;;;;;;;4986763;28;20476;-59
2022/03/02 10:08:35;;;;;;;4.67;3.07;;;;;;;;;;4984445;28;20022;-57
2022/03/02 10:11:04;;;;;;;3.88;3.15;;;;;;;;;;4983646;28;20779;-58
2022/03/02 10:13:29;;;;;;;11.13;7.20;;;;;;;;;;4986405;28;20044;-58
2022/03/02 10:15:54;;;;;;;6.77;4.40;;;;;;;;;;4997692;28;20473;-58
2022/03/02 10:18:19;;;;;;;5.83;4.27;;;;;;;;;;5025046;28;21270;-58
2022/03/02 10:20:49;;;;;;;6.10;4.33;;;;;;;;;;5015784;28;20945;-58
2022/03/02 10:23:20;;;;;;;4.55;3.20;;;;;;;;;;4982917;28;20351;-57
2022/03/02 10:25:51;;;;;;;6.38;3.13;;;;;;;;;;4993065;28;20044;-56
2022/03/02 10:28:24;;;;;;;4.57;3.40;;;;;;;;;;4990936;28;20045;-58
2022/03/02 10:30:51;;;;;;;5.25;3.67;;;;;;;;;;5019805;28;20025;-58
2022/03/02 10:33:19;;;;;;;4.47;3.25;;;;;;;;;;5016154;28;20731;-56
2022/03/02 10:35:48;;;;;;;3.90;2.97;;;;;;;;;;4981856;28;20032;-58
2022/03/02 10:38:15;;;;;;;3.88;3.20;;;;;;;;;;4982312;28;20572;-58
2022/03/02 10:40:40;;;;;;;6.32;3.20;;;;;;;;;;4982936;28;20038;-58
2022/03/02 10:43:06;;;;;;;4.53;3.00;;;;;;;;;;4988720;28;20080;-57
2022/03/02 10:45:31;;;;;;;3.88;2.95;;;;;;;;;;4998624;28;20391;-58
2022/03/02 10:47:56;;;;;;;3.63;2.83;;;;;;;;;;5000708;28;20476;-59
2022/03/02 10:50:26;;;;;;;4.77;3.13;;;;;;;;;;5001064;28;20037;-58
2022/03/02 10:52:51;;;;;;;3.35;2.80;;;;;;;;;;4994548;28;20621;-57
2022/03/02 10:55:17;;;;;;;5.95;3.20;;;;;;;;;;4990175;28;20619;-59
2022/03/02 10:57:44;;;;;;;4.03;3.00;;;;;;;;;;5000789;28;20516;-57
2022/03/02 11:00:13;;;;;;;4.13;3.17;;;;;;;;;;5031395;28;20034;-58
2022/03/02 11:02:42;;;;;;;3.57;2.90;;;;;;;;;;4984713;28;20468;-57
2022/03/02 11:05:11;;;;;;;6.53;4.03;;;;;;;;;;5000098;28;20058;-56
2022/03/02 11:07:36;;;;;;;4.63;3.17;;;;;;;;;;4998826;28;20049;-56
2022/03/02 11:10:02;;;;;;;6.33;3.40;;;;;;;;;;4999745;28;20059;-57
2022/03/02 11:12:27;;;;;;;5.15;3.35;;;;;;;;;;4999151;28;20284;-57
2022/03/02 11:15:03;;;;;;;4.20;3.07;;;;;;;;;;4999744;28;20026;-57
2022/03/02 11:17:29;;;;;;;5.70;3.05;;;;;;;;;;5000280;28;20417;-57
2022/03/02 11:19:55;;;;;;;4.65;3.35;;;;;;;;;;5001836;28;20026;-56
2022/03/02 11:22:20;;;;;;;4.38;3.50;;;;;;;;;;5024607;28;20129;-56
2022/03/02 11:24:46;;;;;;;4.63;3.50;;;;;;;;;;5004476;28;20105;-56
2022/03/02 11:27:27;;;;;;;4.45;3.33;;;;;;;;;;5005058;28;20022;-56
2022/03/02 11:30:01;;;;;;;4.65;3.53;;;;;;;;;;5004699;28;20030;-58
2022/03/02 11:32:26;;;;;;;5.25;3.45;;;;;;;;;;5002091;28;20025;-56
2022/03/02 11:34:51;;;;;;;5.40;3.40;;;;;;;;;;4989257;28;20022;-56
2022/03/02 11:37:17;;;;;;;4.53;3.40;;;;;;;;;;5035819;28;20268;-57
2022/03/02 11:39:43;;;;;;;4.97;3.70;;;;;;;;;;5035844;28;20504;-56
2022/03/02 11:42:09;;;;;;;4.97;3.40;;;;;;;;;;5003980;28;20033;-59
2022/03/02 11:44:41;;;;;;;3.78;3.22;;;;;;;;;;4988213;28;20408;-57
2022/03/02 11:47:07;;;;;;;3.92;3.38;;;;;;;;;;4999831;28;20026;-60
2022/03/02 11:49:45;;;;;;;6.20;3.92;;;;;;;;;;5001462;28;20412;-58
2022/03/02 11:52:14;;;;;;;4.68;3.40;;;;;;;;;;5003870;28;20042;-56
2022/03/02 11:54:52;;;;;;;4.30;3.73;;;;;;;;;;4998592;28;20014;-60
2022/03/02 11:57:18;;;;;;;4.68;3.50;;;;;;;;;;5018698;28;20273;-60
2022/03/02 11:59:43;;;;;;;4.50;3.40;;;;;;;;;;4987050;28;20121;-58
2022/03/02 12:02:12;;;;;;;4.97;3.67;;;;;;;;;;4987514;28;20493;-58
2022/03/02 12:04:37;;;;;;;4.68;3.40;;;;;;;;;;4987917;28;20064;-56
2022/03/02 12:07:03;;;;;;;4.57;3.70;;;;;;;;;;4983537;28;20073;-57
2022/03/02 12:09:29;;;;;;;4.50;3.63;;;;;;;;;;4985043;28;20361;-58
2022/03/02 12:12:16;;;;;;;5.18;3.70;;;;;;;;;;4993458;28;20567;-57
2022/03/02 12:14:42;;;;;;;5.43;3.72;;;;;;;;;;4984053;28;20041;-59
2022/03/02 12:17:13;;;;;;;5.20;3.65;;;;;;;;;;4984487;28;20022;-58
2022/03/02 12:19:39;;;;;;;5.28;4.03;;;;;;;;;;4983581;28;20080;-59
2022/03/02 12:22:05;;;;;;;5.50;3.80;;;;;;;;;;4986963;28;20410;-58
2022/03/02 12:24:32;;;;;;;4.72;3.58;;;;;;;;;;4985949;28;20395;-57
2022/03/02 12:27:01;;;;;;;5.68;4.10;;;;;;;;;;4985323;28;20030;-58
2022/03/02 12:29:26;;;;;;;4.53;3.72;;;;;;;;;;4990731;28;20017;-57
2022/03/02 12:32:02;;;;;;;4.82;3.92;;;;;;;;;;4982715;28;20026;-58
2022/03/02 12:34:28;;;;;;;5.85;4.00;;;;;;;;;;4984307;28;20030;-59
2022/03/02 12:36:53;;;;;;;5.60;4.03;;;;;;;;;;4988706;28;20053;-58
2022/03/02 12:39:18;;;;;;;4.20;3.57;;;;;;;;;;5034951;28;20088;-58
2022/03/02 12:41:43;;;;;;;5.57;4.00;;;;;;;;;;5031502;28;20313;-58
2022/03/02 12:44:09;;;;;;;5.40;3.83;;;;;;;;;;4984220;28;20034;-58
2022/03/02 12:46:35;;;;;;;5.50;4.00;;;;;;;;;;5018483;28;20026;-59
2022/03/02 12:49:00;;;;;;;4.35;3.70;;;;;;;;;;4996811;28;20448;-58
2022/03/02 12:51:27;;;;;;;5.47;3.83;;;;;;;;;;5024078;28;20029;-57
2022/03/02 12:53:52;;;;;;;5.28;4.20;;;;;;;;;;5002409;28;20049;-59
2022/03/02 12:56:17;;;;;;;5.13;3.87;;;;;;;;;;5002684;28;20022;-58
2022/03/02 12:58:43;;;;;;;6.03;3.73;;;;;;;;;;4993281;28;20034;-58
2022/03/02 13:01:08;;;;;;;5.57;3.80;;;;;;;;;;4982509;28;20270;-58
2022/03/02 13:03:33;;;;;;;5.23;4.03;;;;;;;;;;4994049;28;20045;-59
2022/03/02 13:06:02;;;;;;;5.10;4.20;;;;;;;;;;5001471;28;20026;-58
2022/03/02 13:08:31;;;;;;;4.80;3.43;;;;;;;;;;5025440;28;20444;-58
2022/03/02 13:10:57;;;;;;;4.97;3.88;;;;;;;;;;4989180;28;20028;-57
2022/03/02 13:13:33;;;;;;;5.03;4.10;;;;;;;;;;5002553;28;20046;-57
2022/03/02 13:16:05;;;;;;;4.45;3.67;;;;;;;;;;5002262;28;20085;-58
2022/03/02 13:18:30;;;;;;;4.95;3.80;;;;;;;;;;5032432;28;20054;-57
2022/03/02 13:20:55;;;;;;;4.57;3.80;;;;;;;;;;5013771;28;20054;-57
2022/03/02 13:23:24;;;;;;;5.33;3.90;;;;;;;;;;4992016;28;20497;-59
2022/03/02 13:25:55;;;;;;;4.45;3.88;;;;;;;;;;5002469;28;20037;-58
2022/03/02 13:28:22;;;;;;;5.35;3.65;;;;;;;;;;5000947;28;20113;-58
2022/03/02 13:30:48;;;;;;;4.72;3.80;;;;;;;;;;5001850;28;20040;-58
2022/03/02 13:33:13;;;;;;;5.68;4.13;;;;;;;;;;4994698;28;20049;-57
2022/03/02 13:35:51;;;;;;;4.50;3.73;;;;;;;;;;4983241;28;20031;-57
2022/03/02 13:38:17;;;;;;;4.97;3.85;;;;;;;;;;4989278;28;20273;-58
2022/03/02 13:40:49;;;;;;;4.60;3.90;;;;;;;;;;4997633;28;20037;-59
2022/03/02 13:43:14;;;;;;;4.95;4.13;;;;;;;;;;4985228;28;20044;-59
2022/03/02 13:45:44;;;;;;;5.83;3.90;;;;;;;;;;4993810;28;20548;-58
2022/03/02 13:48:18;;;;;;;4.80;4.00;;;;;;;;;;5001760;28;20276;-58
2022/03/02 13:50:56;;;;;;;4.95;4.03;;;;;;;;;;5001484;28;20048;-59
2022/03/02 13:53:33;;;;;;;4.72;3.85;;;;;;;;;;5001107;28;20194;-57
2022/03/02 13:56:03;;;;;;;5.75;3.75;;;;;;;;;;5001299;28;20396;-57
2022/03/02 13:58:28;;;;;;;5.00;4.10;;;;;;;;;;4985990;28;20124;-58
2022/03/02 14:00:54;;;;;;;6.85;3.85;;;;;;;;;;4983648;28;20065;-58
2022/03/02 14:03:29;;;;;;;5.28;3.88;;;;;;;;;;5020419;28;20034;-57
2022/03/02 14:05:54;;;;;;;5.38;3.88;;;;;;;;;;4980184;28;20022;-57
2022/03/02 14:08:19;;;;;;;5.83;4.20;;;;;;;;;;4981112;28;20046;-58
2022/03/02 14:10:45;;;;;;;4.90;3.70;;;;;;;;;;4981338;28;20272;-58
2022/03/02 14:13:10;;;;;;;4.93;3.90;;;;;;;;;;4983665;28;20034;-58
2022/03/02 14:15:36;;;;;;;6.33;4.27;;;;;;;;;;4980468;28;20740;-58
2022/03/02 14:18:04;;;;;;;9.03;3.63;;;;;;;;;;4980847;28;20352;-58
2022/03/02 14:20:34;;;;;;;4.78;3.92;;;;;;;;;;4987085;28;20362;-59
2022/03/02 14:22:59;;;;;;;5.50;4.00;;;;;;;;;;4997818;28;20073;-58
2022/03/02 14:25:24;;;;;;;4.83;3.80;;;;;;;;;;4980979;28;20128;-58
2022/03/02 14:27:55;;;;;;;5.45;3.85;;;;;;;;;;4993418;28;20117;-59
2022/03/02 14:30:20;;;;;;;5.18;3.30;;;;;;;;;;4981844;28;20728;-58
2022/03/02 14:32:45;;;;;;;4.73;3.40;;;;;;;;;;4985099;28;20034;-58
2022/03/02 14:35:11;;;;;;;4.25;3.40;;;;;;;;;;4995201;28;20024;-59
2022/03/02 14:37:39;;;;;;;5.10;3.88;;;;;;;;;;4982840;28;20042;-60